Terminal Aerodrome Forecast
Issued by NWS

Home | Current Version | Previous Version | Graphics & Text | Print | Product List | Glossary On
Versions: 1 2 3 4 5 6 7 8 9 10 11 12 13 14 15 16 17 18 19
000
FTUS43 KMPX 272300
TAFRNH
TAF
KRNH 272332Z 2800/2824 30006KT P6SM BKN200
     FM280100 30007KT P6SM VCSH SCT070 BKN120
     FM280500 28008KT P6SM SCT060 BKN100
     FM281600 27014G20KT P6SM BKN020 OVC040
     FM282100 28017G24KT P6SM BKN030 OVC050=

USA.gov is the U.S. government's official web portal to all federal, state and local government web resources and services.